Gracie M. Reinauer — WDI7449 — position and weather

sailwx.info

Track history (hours):
 
Tides and Currents Weather Stations Pressure Air Temp Water Temp Dewpoint Dewpoint Depression Visibility Wind Speed Wind Dir Waves Ship Positions

Gracie M. Reinauer

Owner: REINAUER TRANSPORTATION CO.,LLC., STATEN ISLAND,, NY. More information available from US FCC via Universal Licensing System and Coast Guard Vessel Documentation Center.

Last reported at 2018-Jul-16 19:59 UTC. Time now 2018-Jul-16 20:12 UTC.
Position N 40°40' W 074°02'.

Length 144 m; draft 5.1 m.

Type: Tug. MMSI: 367728850.

Date/timePositionNaut miles runAvg speedWind from/ knotsBaromVisibWave heightAir tempDewpointWater temp
2018-Jul-16 19:59N 40°40' W 074°02'0 0.0
2018-Jul-16 19:29N 40°40' W 074°02'0 0.1
2018-Jul-16 18:56N 40°40' W 074°02'0 0.0
2018-Jul-16 18:29N 40°40' W 074°02'0 0.1
2018-Jul-16 17:59N 40°40' W 074°02'0 0.1
2018-Jul-16 17:29N 40°40' W 074°02'0 0.1
2018-Jul-16 16:59N 40°40' W 074°02'0 0.0
2018-Jul-16 16:29N 40°40' W 074°02'0 0.0
2018-Jul-16 15:59N 40°40' W 074°02'0 0.0
2018-Jul-16 15:29N 40°40' W 074°02'0 0.0
2018-Jul-16 14:59N 40°40' W 074°02'0 0.0
2018-Jul-16 14:29N 40°40' W 074°02'0 0.0
2018-Jul-16 13:59N 40°40' W 074°02'0 0.0
2018-Jul-16 13:29N 40°40' W 074°02'0 0.0
2018-Jul-16 12:59N 40°40' W 074°02'0 0.1
2018-Jul-16 12:29N 40°40' W 074°02'0 0.2
2018-Jul-16 11:59N 40°40' W 074°02'0 0.1
2018-Jul-16 11:29N 40°40' W 074°02'0 0.0
2018-Jul-16 10:59N 40°40' W 074°02'0 0.0
2018-Jul-16 10:29N 40°40' W 074°02'0 0.0
2018-Jul-16 09:59N 40°40' W 074°02'0 0.0
2018-Jul-16 09:29N 40°40' W 074°02'0 0.0
2018-Jul-16 08:59N 40°40' W 074°02'0 0.0
2018-Jul-16 08:29N 40°40' W 074°02'0 0.0
2018-Jul-16 07:59N 40°40' W 074°02'0 0.0
2018-Jul-16 07:29N 40°40' W 074°02'0 0.0
2018-Jul-16 06:59N 40°40' W 074°02'0 0.0
2018-Jul-16 06:29N 40°40' W 074°02'0 0.0
2018-Jul-16 05:59N 40°40' W 074°02'0 0.1
2018-Jul-16 05:29N 40°40' W 074°02'0 0.2
2018-Jul-16 04:59N 40°40' W 074°02'0 0.1
2018-Jul-16 04:29N 40°40' W 074°02'0 0.0
2018-Jul-16 03:59N 40°40' W 074°02'0 0.0
2018-Jul-16 03:29N 40°40' W 074°02'0 0.0
2018-Jul-16 02:59N 40°40' W 074°02'0 0.0
2018-Jul-16 02:29N 40°40' W 074°02'0 0.0
2018-Jul-16 01:59N 40°40' W 074°02'0 0.0
2018-Jul-16 01:29N 40°40' W 074°02'0 0.0
2018-Jul-16 00:59N 40°40' W 074°02'0 0.0
2018-Jul-16 00:29N 40°40' W 074°02'0 0.0
2018-Jul-15 23:59N 40°40' W 074°02'0 0.0
2018-Jul-15 23:29N 40°40' W 074°02'0 0.0
2018-Jul-15 22:59N 40°40' W 074°02'0 0.3
2018-Jul-15 22:29N 40°40' W 074°02'0 0.1
2018-Jul-15 21:59N 40°40' W 074°02'0 0.1
2018-Jul-15 21:29N 40°40' W 074°02'0 0.0
2018-Jul-15 20:56N 40°40' W 074°02'0 0.0
2018-Jul-15 20:26N 40°40' W 074°02'0 0.0
2018-Jul-15 19:50N 40°40' W 074°02'0 0.0
2018-Jul-15 19:20N 40°40' W 074°02'0 0.0
2018-Jul-15 18:59N 40°40' W 074°02'0 0.0
2018-Jul-15 18:26N 40°40' W 074°02'0 0.0
2018-Jul-15 17:41N 40°40' W 074°02'0 0.1
2018-Jul-15 17:11N 40°40' W 074°02'0 0.4
2018-Jul-15 16:59N 40°40' W 074°02'0 0.2
2018-Jul-15 16:29N 40°40' W 074°02'0 0.0
2018-Jul-15 15:53N 40°40' W 074°02'0 0.0
2018-Jul-15 15:29N 40°40' W 074°02'0 0.0
2018-Jul-15 14:44N 40°40' W 074°02'0 0.0
2018-Jul-15 14:08N 40°40' W 074°02'0 0.0
2018-Jul-15 13:59N 40°40' W 074°02'0 0.0
2018-Jul-15 13:23N 40°40' W 074°02'0 0.0
2018-Jul-15 12:56N 40°40' W 074°02'0 0.0
2018-Jul-15 12:20N 40°40' W 074°02'0 0.0
2018-Jul-15 11:50N 40°40' W 074°02'0 0.1
2018-Jul-15 10:41N 40°40' W 074°02'0 0.0
2018-Jul-15 10:20N 40°40' W 074°02'0 0.0
2018-Jul-15 09:59N 40°40' W 074°02'0 0.0
2018-Jul-15 09:29N 40°40' W 074°02'1 1.9
2018-Jul-15 09:00N 40°39' W 074°03'2 3.3
2018-Jul-15 08:30N 40°41' W 074°02'510.5
2018-Jul-15 08:00N 40°45' W 073°58'36 1.5
2018-Jul-14 07:14N 41°04' W 073°17'2 9.9
2018-Jul-14 07:00N 41°03' W 073°20'5 9.8
2018-Jul-14 06:30N 41°00' W 073°25'11 9.3
2018-Jul-14 05:20N 40°55' W 073°38'16 7.4
2018-Jul-14 03:11N 40°47' W 073°56'2 5.7
2018-Jul-14 02:55N 40°46' W 073°57'2 5.2
2018-Jul-14 02:30N 40°44' W 073°58'3 6.7
2018-Jul-14 02:00N 40°41' W 074°01'4 8.3
2018-Jul-14 01:31N 40°39' W 074°05'4 8.4
2018-Jul-14 01:00N 40°39' W 074°11'2 1.3
2018-Jul-13 23:47N 40°38' W 074°12'0 0.1
2018-Jul-13 23:26N 40°38' W 074°12'0 0.0
2018-Jul-13 20:05N 40°38' W 074°12'0 0.0
2018-Jul-13 19:38N 40°38' W 074°12'0 0.0
2018-Jul-13 19:20N 40°38' W 074°12'0 0.0
2018-Jul-13 18:44N 40°38' W 074°12'0 0.0
2018-Jul-13 18:23N 40°38' W 074°12'0 0.0
2018-Jul-13 17:56N 40°38' W 074°12'0 0.0
2018-Jul-13 17:23N 40°38' W 074°12'0 0.0
2018-Jul-13 16:59N 40°38' W 074°12'0 0.0
2018-Jul-13 16:29N 40°38' W 074°12'0 0.0
2018-Jul-13 15:41N 40°38' W 074°12'0 0.0
2018-Jul-13 15:17N 40°38' W 074°12'0 0.0
2018-Jul-13 14:53N 40°38' W 074°12'0 0.0
2018-Jul-13 13:53N 40°38' W 074°12'0 0.0
2018-Jul-13 13:29N 40°38' W 074°12'0 0.0
2018-Jul-13 12:53N 40°38' W 074°12'0 0.0
2018-Jul-13 12:17N 40°38' W 074°12'0 0.0
2018-Jul-13 11:53N 40°38' W 074°12'0 0.0
2018-Jul-13 11:29N 40°38' W 074°12'0 0.0
2018-Jul-13 10:53N 40°38' W 074°12'0 0.0
2018-Jul-13 10:29N 40°38' W 074°12'0 0.0
2018-Jul-13 09:56N 40°38' W 074°12'0 0.0
2018-Jul-13 09:23N 40°38' W 074°12'0 0.0
2018-Jul-13 08:59N 40°38' W 074°12'0 0.0
2018-Jul-13 08:29N 40°38' W 074°12'0 0.0
2018-Jul-13 07:50N 40°38' W 074°12'0 0.0
2018-Jul-13 07:29N 40°38' W 074°12'0 0.0
2018-Jul-13 06:59N 40°38' W 074°12'0 0.0
2018-Jul-13 06:29N 40°38' W 074°12'0 0.0
2018-Jul-13 05:59N 40°38' W 074°12'0 0.0
2018-Jul-13 05:26N 40°38' W 074°12'0 0.0
2018-Jul-13 04:59N 40°38' W 074°12'0 0.0
2018-Jul-13 04:29N 40°38' W 074°12'0 0.0
2018-Jul-13 03:59N 40°38' W 074°12'0 0.0
2018-Jul-13 03:29N 40°38' W 074°12'0 0.3
2018-Jul-13 03:00N 40°38' W 074°12'3 5.8
2018-Jul-13 02:30N 40°39' W 074°08'3 6.6
2018-Jul-13 02:00N 40°39' W 074°04'2 4.0
2018-Jul-13 01:30N 40°40' W 074°02'0 0.2
2018-Jul-13 01:00N 40°40' W 074°02'0 0.0
2018-Jul-13 00:30N 40°40' W 074°02'0 0.0
2018-Jul-13 00:00N 40°40' W 074°02'0 0.1
2018-Jul-12 23:30N 40°40' W 074°02'0 0.0
2018-Jul-12 23:00N 40°40' W 074°02'3 5.4
2018-Jul-12 22:30N 40°39' W 074°05'2 3.8
2018-Jul-12 22:00N 40°38' W 074°08'0 0.0
2018-Jul-12 21:30N 40°38' W 074°08'0 0.0
2018-Jul-12 21:00N 40°38' W 074°08'3 5.7
2018-Jul-12 20:30N 40°39' W 074°04'2 3.2
2018-Jul-12 19:58N 40°40' W 074°02'0 0.1
2018-Jul-12 19:28N 40°40' W 074°02'0 0.0
2018-Jul-12 18:58N 40°40' W 074°02'0 0.0
2018-Jul-12 18:28N 40°40' W 074°02'0 0.0
2018-Jul-12 17:58N 40°40' W 074°02'0 0.0
2018-Jul-12 17:28N 40°40' W 074°02'0 0.0
2018-Jul-12 16:58N 40°40' W 074°02'0 0.0
2018-Jul-12 16:29N 40°40' W 074°02'0 0.0
2018-Jul-12 15:58N 40°40' W 074°02'0 0.0
2018-Jul-12 15:28N 40°40' W 074°02'0 0.0
2018-Jul-12 14:55N 40°40' W 074°02'0 0.0
2018-Jul-12 14:28N 40°40' W 074°02'0 0.2
2018-Jul-12 13:58N 40°40' W 074°02'0 0.1
2018-Jul-12 13:28N 40°40' W 074°02'0 0.0
2018-Jul-12 12:58N 40°40' W 074°02'0 0.0
2018-Jul-12 12:28N 40°40' W 074°02'0 0.0
2018-Jul-12 11:58N 40°40' W 074°02'0 0.0
2018-Jul-12 11:28N 40°40' W 074°02'0 0.0
2018-Jul-12 10:58N 40°40' W 074°02'0 0.1
2018-Jul-12 10:28N 40°40' W 074°02'0 0.1
2018-Jul-12 09:58N 40°40' W 074°02'0 0.1
2018-Jul-12 09:28N 40°40' W 074°02'0 0.1
2018-Jul-12 08:58N 40°40' W 074°02'0 0.2
2018-Jul-12 08:28N 40°40' W 074°02'0 0.1
2018-Jul-12 07:58N 40°40' W 074°02'0 0.1
2018-Jul-12 07:28N 40°40' W 074°02'0 0.0
2018-Jul-12 06:58N 40°40' W 074°02'0 0.0
2018-Jul-12 06:28N 40°40' W 074°02'0 0.0
2018-Jul-12 05:58N 40°40' W 074°02'0 0.0
2018-Jul-12 05:28N 40°40' W 074°02'0 0.0
2018-Jul-12 04:58N 40°40' W 074°02'0 0.0
2018-Jul-12 04:28N 40°40' W 074°02'0 0.0
2018-Jul-12 03:58N 40°40' W 074°02'0 0.0
2018-Jul-12 03:28N 40°40' W 074°02'0 0.0
2018-Jul-12 02:58N 40°40' W 074°02'0 0.0
2018-Jul-12 02:28N 40°40' W 074°02'0 0.1
2018-Jul-12 01:58N 40°40' W 074°02'0 0.1
2018-Jul-12 01:28N 40°40' W 074°02'0 0.1
2018-Jul-12 00:58N 40°40' W 074°02'0 0.0
2018-Jul-12 00:28N 40°40' W 074°02'0 0.0
2018-Jul-11 23:58N 40°40' W 074°02'0 0.0
2018-Jul-11 23:28N 40°40' W 074°02'0 0.0
2018-Jul-11 22:58N 40°40' W 074°02'0 0.0
2018-Jul-11 22:28N 40°40' W 074°02'0 0.0
2018-Jul-11 21:58N 40°40' W 074°02'0 0.0
2018-Jul-11 21:28N 40°40' W 074°02'0 0.0
2018-Jul-11 20:58N 40°40' W 074°02'0 0.3
2018-Jul-11 20:28N 40°40' W 074°02'0 0.0
2018-Jul-11 19:58N 40°40' W 074°02'0 0.0
2018-Jul-11 19:28N 40°40' W 074°02'0 0.1
2018-Jul-11 18:58N 40°40' W 074°02'0 0.0
2018-Jul-11 18:28N 40°40' W 074°02'0 0.0
2018-Jul-11 17:58N 40°40' W 074°02'0 0.0
2018-Jul-11 17:25N 40°40' W 074°02'0 0.0
2018-Jul-11 16:58N 40°40' W 074°02'0 0.0
2018-Jul-11 16:28N 40°40' W 074°02'0 0.0
2018-Jul-11 15:58N 40°40' W 074°02'0 0.0
2018-Jul-11 15:28N 40°40' W 074°02'0 0.0
2018-Jul-11 14:58N 40°40' W 074°02'0 0.0
2018-Jul-11 14:28N 40°40' W 074°02'2 3.3
2018-Jul-11 14:00N 40°39' W 074°04'3 6.0
2018-Jul-11 13:29N 40°38' W 074°08'0 0.0
2018-Jul-11 12:59N 40°38' W 074°08'0 0.0
2018-Jul-11 12:29N 40°38' W 074°08'0 0.0
2018-Jul-11 12:00N 40°38' W 074°08'0 0.1
2018-Jul-11 11:30N 40°38' W 074°08'1 2.0
2018-Jul-11 11:00N 40°39' W 074°06'2 4.4
2018-Jul-11 10:31N 40°39' W 074°04'1 2.0
2018-Jul-11 10:00N 40°39' W 074°02'1 1.1
2018-Jul-11 09:26N 40°40' W 074°02'0 0.0
2018-Jul-11 08:59N 40°40' W 074°02'0 0.1
2018-Jul-11 08:29N 40°40' W 074°02'0 0.2
2018-Jul-11 07:59N 40°40' W 074°02'0 0.1
2018-Jul-11 07:29N 40°40' W 074°02'0 0.0
2018-Jul-11 06:59N 40°40' W 074°02'0 0.0
2018-Jul-11 06:29N 40°40' W 074°02'0 0.7
2018-Jul-11 06:00N 40°40' W 074°02'4 7.1
2018-Jul-11 05:30N 40°39' W 074°07'1 1.2
2018-Jul-11 05:00N 40°38' W 074°08'0 0.2
2018-Jul-11 04:30N 40°39' W 074°08'4 7.7
2018-Jul-11 04:00N 40°39' W 074°03'0 0.0
2018-Jul-11 03:30N 40°39' W 074°02'0 0.0
2018-Jul-11 03:00N 40°39' W 074°03'0 0.0
2018-Jul-11 02:30N 40°39' W 074°03'0 0.0
2018-Jul-11 02:00N 40°39' W 074°02'0 0.3
2018-Jul-11 01:30N 40°39' W 074°03'1 2.2
2018-Jul-11 01:00N 40°40' W 074°02'5 9.3
2018-Jul-11 00:30N 40°44' W 073°58'5 8.1
2018-Jul-10 23:50N 40°48' W 073°53'50 9.0
2018-Jul-10 18:17N 41°05' W 072°51'2 9.0
2018-Jul-10 18:00N 41°05' W 072°48'5 8.6
2018-Jul-10 17:28N 41°07' W 072°42'4 8.1
2018-Jul-10 17:00N 41°07' W 072°37'4 7.6
2018-Jul-10 16:29N 41°08' W 072°32'4 7.4
2018-Jul-10 16:00N 41°09' W 072°28'4 7.4
2018-Jul-10 15:30N 41°10' W 072°23'4 7.3
2018-Jul-10 15:00N 41°11' W 072°18'4 7.9
2018-Jul-10 14:30N 41°13' W 072°13'4 8.0
2018-Jul-10 14:00N 41°14' W 072°08'5 9.4
2018-Jul-10 13:25N 41°14' W 072°01'1710.2
2018-Jul-10 11:46N 41°17' W 071°39'310.0
2018-Jul-10 11:26N 41°18' W 071°34'4 9.9
2018-Jul-10 11:00N 41°18' W 071°29'63 7.8
2018-Jul-10 02:55N 42°03' W 070°30'4 9.1
2018-Jul-10 02:30N 42°07' W 070°31'5 9.3
2018-Jul-10 02:00N 42°11' W 070°34'5 9.7
2018-Jul-10 01:30N 42°15' W 070°38'5 9.5
2018-Jul-10 01:00N 42°19' W 070°42'5 9.6
2018-Jul-10 00:30N 42°21' W 070°48'4 8.8
2018-Jul-10 00:00N 42°23' W 070°53'4 8.5
2018-Jul-09 23:30N 42°20' W 070°58'4 7.7
2018-Jul-09 23:00N 42°22' W 071°03'2 3.3
2018-Jul-09 22:30N 42°23' W 071°01'0 0.4
2018-Jul-09 22:00N 42°23' W 071°01'0 0.4
2018-Jul-09 21:29N 42°23' W 071°02'0 0.0
2018-Jul-09 20:59N 42°23' W 071°02'0 0.0
2018-Jul-09 20:29N 42°23' W 071°02'0 0.0
2018-Jul-09 19:59N 42°23' W 071°02'0 0.0
2018-Jul-09 19:29N 42°23' W 071°02'0 0.0
2018-Jul-09 18:59N 42°23' W 071°02'0 0.0
2018-Jul-09 18:26N 42°23' W 071°02'0 0.0
2018-Jul-09 17:59N 42°23' W 071°02'0 0.0
2018-Jul-09 17:29N 42°23' W 071°02'0 0.0
2018-Jul-09 16:59N 42°23' W 071°02'0 0.0
2018-Jul-09 16:29N 42°23' W 071°02'0 0.0
2018-Jul-09 15:59N 42°23' W 071°02'0 0.0
2018-Jul-09 15:29N 42°23' W 071°02'0 0.0
2018-Jul-09 14:59N 42°23' W 071°02'0 0.0
2018-Jul-09 14:29N 42°23' W 071°02'0 0.0
2018-Jul-09 13:59N 42°23' W 071°02'0 0.0
2018-Jul-09 13:29N 42°23' W 071°02'0 0.0
2018-Jul-09 12:59N 42°23' W 071°02'0 0.0
2018-Jul-09 12:29N 42°23' W 071°02'0 0.0
2018-Jul-09 11:44N 42°23' W 071°02'0 0.0
2018-Jul-09 11:26N 42°23' W 071°02'0 0.0
2018-Jul-09 10:53N 42°23' W 071°02'0 0.0
2018-Jul-09 10:29N 42°23' W 071°02'0 0.0
2018-Jul-09 09:47N 42°23' W 071°02'0 0.0
2018-Jul-09 09:29N 42°23' W 071°02'0 0.0
2018-Jul-09 08:59N 42°23' W 071°02'0 0.0
2018-Jul-09 08:29N 42°23' W 071°02'0 0.0
2018-Jul-09 07:59N 42°23' W 071°02'0 0.0
2018-Jul-09 07:29N 42°23' W 071°02'0 0.0
2018-Jul-09 06:59N 42°23' W 071°02'0 0.0
2018-Jul-09 06:29N 42°23' W 071°02'0 0.0
2018-Jul-09 05:59N 42°23' W 071°02'0 0.0
2018-Jul-09 05:29N 42°23' W 071°02'0 0.0
2018-Jul-09 04:53N 42°23' W 071°02'0 0.0
2018-Jul-09 04:26N 42°23' W 071°02'0 0.0
2018-Jul-09 03:56N 42°23' W 071°02'0 0.0
2018-Jul-09 03:29N 42°23' W 071°02'0 0.0
2018-Jul-09 02:59N 42°23' W 071°02'0 0.0
2018-Jul-09 02:23N 42°23' W 071°02'0 0.0
2018-Jul-09 01:50N 42°23' W 071°02'0 0.0
2018-Jul-09 01:29N 42°23' W 071°02'0 0.0
2018-Jul-09 00:59N 42°23' W 071°02'0 0.0
2018-Jul-09 00:29N 42°23' W 071°02'0 0.0
2018-Jul-08 23:59N 42°23' W 071°02'0 0.0
2018-Jul-08 23:29N 42°23' W 071°02'0 0.1
2018-Jul-08 23:00N 42°23' W 071°02'1 2.0
2018-Jul-08 22:30N 42°23' W 071°03'2 3.3
2018-Jul-08 22:01N 42°21' W 071°02'2 4.6
2018-Jul-08 21:30N 42°20' W 070°59'1 1.1
2018-Jul-08 21:01N 42°20' W 070°59'0 0.0
2018-Jul-08 20:29N 42°20' W 070°59'0 0.1
2018-Jul-08 19:59N 42°20' W 070°59'0 0.1
2018-Jul-08 19:26N 42°20' W 070°59'0 0.0
2018-Jul-08 18:59N 42°20' W 070°59'0 0.0
2018-Jul-08 18:30N 42°20' W 070°59'0 0.0
2018-Jul-08 18:00N 42°20' W 070°59'0 0.1
2018-Jul-08 17:30N 42°20' W 070°59'0 0.2
2018-Jul-08 17:00N 42°20' W 070°59'0 0.2
2018-Jul-08 16:30N 42°20' W 070°58'0 0.1
2018-Jul-08 16:00N 42°20' W 070°58'0 0.0
2018-Jul-08 15:30N 42°20' W 070°58'0 0.1
2018-Jul-08 15:00N 42°20' W 070°58'0 0.0
2018-Jul-08 14:30N 42°20' W 070°58'0 0.0
2018-Jul-08 14:00N 42°20' W 070°58'1 1.6
2018-Jul-08 13:30N 42°20' W 070°57'4 7.9
2018-Jul-08 13:00N 42°23' W 070°53'4 8.5
2018-Jul-08 12:30N 42°22' W 070°48'5 9.1
2018-Jul-08 12:00N 42°19' W 070°43'4 8.9
2018-Jul-08 11:30N 42°16' W 070°38'4 8.7
2018-Jul-08 11:00N 42°13' W 070°34'4 8.9
2018-Jul-08 10:30N 42°09' W 070°31'4 8.9
2018-Jul-08 10:00N 42°05' W 070°30'4 8.9
2018-Jul-08 09:30N 42°00' W 070°29'5 8.8
2018-Jul-08 09:00N 41°56' W 070°28'4 8.8
2018-Jul-08 08:30N 41°51' W 070°28'175 8.5
2018-Jul-07 11:52N 40°29' W 073°53'4 9.5
2018-Jul-07 11:29N 40°30' W 073°58'5 9.5
2018-Jul-07 11:00N 40°34' W 074°02'510.3
2018-Jul-07 10:30N 40°38' W 074°04'4 8.6
2018-Jul-07 10:00N 40°39' W 074°10'2 4.6
2018-Jul-07 09:29N 40°38' W 074°12'0 0.0
2018-Jul-07 08:26N 40°38' W 074°12'0 0.0
2018-Jul-07 07:56N 40°38' W 074°12'0 0.0
2018-Jul-07 07:20N 40°38' W 074°12'0 0.0
2018-Jul-07 06:56N 40°38' W 074°12'0 0.0
2018-Jul-07 06:20N 40°38' W 074°12'0 0.0
2018-Jul-07 05:50N 40°38' W 074°12'0 0.0
2018-Jul-07 05:26N 40°38' W 074°12'0 0.0
2018-Jul-07 04:56N 40°38' W 074°12'0 0.0
2018-Jul-07 04:26N 40°38' W 074°12'0 0.0
2018-Jul-07 03:56N 40°38' W 074°12'0 0.0
2018-Jul-07 03:26N 40°38' W 074°12'0 0.0
2018-Jul-07 02:14N 40°38' W 074°12'0 0.0
2018-Jul-07 01:50N 40°38' W 074°12'0 0.0
2018-Jul-07 01:02N 40°38' W 074°12'0 0.0
2018-Jul-07 00:56N 40°38' W 074°12'0 0.0
2018-Jul-07 00:26N 40°38' W 074°12'0 0.0
2018-Jul-06 23:50N 40°38' W 074°12'0 0.0
2018-Jul-06 23:26N 40°38' W 074°12'0 0.0
2018-Jul-06 22:56N 40°38' W 074°12'0 0.0
2018-Jul-06 22:20N 40°38' W 074°12'0 0.0
2018-Jul-06 21:38N 40°38' W 074°12'0 0.0
2018-Jul-06 21:26N 40°38' W 074°12'0 0.0
2018-Jul-06 20:56N 40°38' W 074°12'0 0.0
2018-Jul-06 20:26N 40°38' W 074°12'  
Track history (hours):
 
Tides and Currents Weather Stations Pressure Air Temp Water Temp Dewpoint Dewpoint Depression Visibility Wind Speed Wind Dir Waves Ship Positions

Gracie M. Reinauer

Owner: REINAUER TRANSPORTATION CO.,LLC., STATEN ISLAND,, NY. More information available from US FCC via Universal Licensing System and Coast Guard Vessel Documentation Center.

Last reported at 2018-Jul-16 19:59 UTC. Time now 2018-Jul-16 20:12 UTC.
Position N 40°40' W 074°02'.

Length 144 m; draft 5.1 m.

Type: Tug. MMSI: 367728850.

Date/timePositionNaut miles runAvg speedWind from/ knotsBaromVisibWave heightAir tempDewpointWater temp
2018-Jul-16 19:59N 40°40' W 074°02'0 0.0
2018-Jul-16 19:29N 40°40' W 074°02'0 0.1
2018-Jul-16 18:56N 40°40' W 074°02'0 0.0
2018-Jul-16 18:29N 40°40' W 074°02'0 0.1
2018-Jul-16 17:59N 40°40' W 074°02'0 0.1
2018-Jul-16 17:29N 40°40' W 074°02'0 0.1
2018-Jul-16 16:59N 40°40' W 074°02'0 0.0
2018-Jul-16 16:29N 40°40' W 074°02'0 0.0
2018-Jul-16 15:59N 40°40' W 074°02'0 0.0
2018-Jul-16 15:29N 40°40' W 074°02'0 0.0
2018-Jul-16 14:59N 40°40' W 074°02'0 0.0
2018-Jul-16 14:29N 40°40' W 074°02'0 0.0
2018-Jul-16 13:59N 40°40' W 074°02'0 0.0
2018-Jul-16 13:29N 40°40' W 074°02'0 0.0
2018-Jul-16 12:59N 40°40' W 074°02'0 0.1
2018-Jul-16 12:29N 40°40' W 074°02'0 0.2
2018-Jul-16 11:59N 40°40' W 074°02'0 0.1
2018-Jul-16 11:29N 40°40' W 074°02'0 0.0
2018-Jul-16 10:59N 40°40' W 074°02'0 0.0
2018-Jul-16 10:29N 40°40' W 074°02'0 0.0
2018-Jul-16 09:59N 40°40' W 074°02'0 0.0
2018-Jul-16 09:29N 40°40' W 074°02'0 0.0
2018-Jul-16 08:59N 40°40' W 074°02'0 0.0
2018-Jul-16 08:29N 40°40' W 074°02'0 0.0
2018-Jul-16 07:59N 40°40' W 074°02'0 0.0
2018-Jul-16 07:29N 40°40' W 074°02'0 0.0
2018-Jul-16 06:59N 40°40' W 074°02'0 0.0
2018-Jul-16 06:29N 40°40' W 074°02'0 0.0
2018-Jul-16 05:59N 40°40' W 074°02'0 0.1
2018-Jul-16 05:29N 40°40' W 074°02'0 0.2
2018-Jul-16 04:59N 40°40' W 074°02'0 0.1
2018-Jul-16 04:29N 40°40' W 074°02'0 0.0
2018-Jul-16 03:59N 40°40' W 074°02'0 0.0
2018-Jul-16 03:29N 40°40' W 074°02'0 0.0
2018-Jul-16 02:59N 40°40' W 074°02'0 0.0
2018-Jul-16 02:29N 40°40' W 074°02'0 0.0
2018-Jul-16 01:59N 40°40' W 074°02'0 0.0
2018-Jul-16 01:29N 40°40' W 074°02'0 0.0
2018-Jul-16 00:59N 40°40' W 074°02'0 0.0
2018-Jul-16 00:29N 40°40' W 074°02'0 0.0
2018-Jul-15 23:59N 40°40' W 074°02'0 0.0
2018-Jul-15 23:29N 40°40' W 074°02'0 0.0
2018-Jul-15 22:59N 40°40' W 074°02'0 0.3
2018-Jul-15 22:29N 40°40' W 074°02'0 0.1
2018-Jul-15 21:59N 40°40' W 074°02'0 0.1
2018-Jul-15 21:29N 40°40' W 074°02'0 0.0
2018-Jul-15 20:56N 40°40' W 074°02'0 0.0
2018-Jul-15 20:26N 40°40' W 074°02'0 0.0
2018-Jul-15 19:50N 40°40' W 074°02'0 0.0
2018-Jul-15 19:20N 40°40' W 074°02'0 0.0
2018-Jul-15 18:59N 40°40' W 074°02'0 0.0
2018-Jul-15 18:26N 40°40' W 074°02'0 0.0
2018-Jul-15 17:41N 40°40' W 074°02'0 0.1
2018-Jul-15 17:11N 40°40' W 074°02'0 0.4
2018-Jul-15 16:59N 40°40' W 074°02'0 0.2
2018-Jul-15 16:29N 40°40' W 074°02'0 0.0
2018-Jul-15 15:53N 40°40' W 074°02'0 0.0
2018-Jul-15 15:29N 40°40' W 074°02'0 0.0
2018-Jul-15 14:44N 40°40' W 074°02'0 0.0
2018-Jul-15 14:08N 40°40' W 074°02'0 0.0
2018-Jul-15 13:59N 40°40' W 074°02'0 0.0
2018-Jul-15 13:23N 40°40' W 074°02'0 0.0
2018-Jul-15 12:56N 40°40' W 074°02'0 0.0
2018-Jul-15 12:20N 40°40' W 074°02'0 0.0
2018-Jul-15 11:50N 40°40' W 074°02'0 0.1
2018-Jul-15 10:41N 40°40' W 074°02'0 0.0
2018-Jul-15 10:20N 40°40' W 074°02'0 0.0
2018-Jul-15 09:59N 40°40' W 074°02'0 0.0
2018-Jul-15 09:29N 40°40' W 074°02'1 1.9
2018-Jul-15 09:00N 40°39' W 074°03'2 3.3
2018-Jul-15 08:30N 40°41' W 074°02'510.5
2018-Jul-15 08:00N 40°45' W 073°58'36 1.5
2018-Jul-14 07:14N 41°04' W 073°17'2 9.9
2018-Jul-14 07:00N 41°03' W 073°20'5 9.8
2018-Jul-14 06:30N 41°00' W 073°25'11 9.3
2018-Jul-14 05:20N 40°55' W 073°38'16 7.4
2018-Jul-14 03:11N 40°47' W 073°56'2 5.7
2018-Jul-14 02:55N 40°46' W 073°57'2 5.2
2018-Jul-14 02:30N 40°44' W 073°58'3 6.7
2018-Jul-14 02:00N 40°41' W 074°01'4 8.3
2018-Jul-14 01:31N 40°39' W 074°05'4 8.4
2018-Jul-14 01:00N 40°39' W 074°11'2 1.3
2018-Jul-13 23:47N 40°38' W 074°12'0 0.1
2018-Jul-13 23:26N 40°38' W 074°12'0 0.0
2018-Jul-13 20:05N 40°38' W 074°12'0 0.0
2018-Jul-13 19:38N 40°38' W 074°12'0 0.0
2018-Jul-13 19:20N 40°38' W 074°12'0 0.0
2018-Jul-13 18:44N 40°38' W 074°12'0 0.0
2018-Jul-13 18:23N 40°38' W 074°12'0 0.0
2018-Jul-13 17:56N 40°38' W 074°12'0 0.0
2018-Jul-13 17:23N 40°38' W 074°12'0 0.0
2018-Jul-13 16:59N 40°38' W 074°12'0 0.0
2018-Jul-13 16:29N 40°38' W 074°12'0 0.0
2018-Jul-13 15:41N 40°38' W 074°12'0 0.0
2018-Jul-13 15:17N 40°38' W 074°12'0 0.0
2018-Jul-13 14:53N 40°38' W 074°12'0 0.0
2018-Jul-13 13:53N 40°38' W 074°12'0 0.0
2018-Jul-13 13:29N 40°38' W 074°12'0 0.0
2018-Jul-13 12:53N 40°38' W 074°12'0 0.0
2018-Jul-13 12:17N 40°38' W 074°12'0 0.0
2018-Jul-13 11:53N 40°38' W 074°12'0 0.0
2018-Jul-13 11:29N 40°38' W 074°12'0 0.0
2018-Jul-13 10:53N 40°38' W 074°12'0 0.0
2018-Jul-13 10:29N 40°38' W 074°12'0 0.0
2018-Jul-13 09:56N 40°38' W 074°12'0 0.0
2018-Jul-13 09:23N 40°38' W 074°12'0 0.0
2018-Jul-13 08:59N 40°38' W 074°12'0 0.0
2018-Jul-13 08:29N 40°38' W 074°12'0 0.0
2018-Jul-13 07:50N 40°38' W 074°12'0 0.0
2018-Jul-13 07:29N 40°38' W 074°12'0 0.0
2018-Jul-13 06:59N 40°38' W 074°12'0 0.0
2018-Jul-13 06:29N 40°38' W 074°12'0 0.0
2018-Jul-13 05:59N 40°38' W 074°12'0 0.0
2018-Jul-13 05:26N 40°38' W 074°12'0 0.0
2018-Jul-13 04:59N 40°38' W 074°12'0 0.0
2018-Jul-13 04:29N 40°38' W 074°12'0 0.0
2018-Jul-13 03:59N 40°38' W 074°12'0 0.0
2018-Jul-13 03:29N 40°38' W 074°12'0 0.3
2018-Jul-13 03:00N 40°38' W 074°12'3 5.8
2018-Jul-13 02:30N 40°39' W 074°08'3 6.6
2018-Jul-13 02:00N 40°39' W 074°04'2 4.0
2018-Jul-13 01:30N 40°40' W 074°02'0 0.2
2018-Jul-13 01:00N 40°40' W 074°02'0 0.0
2018-Jul-13 00:30N 40°40' W 074°02'0 0.0
2018-Jul-13 00:00N 40°40' W 074°02'0 0.1
2018-Jul-12 23:30N 40°40' W 074°02'0 0.0
2018-Jul-12 23:00N 40°40' W 074°02'3 5.4
2018-Jul-12 22:30N 40°39' W 074°05'2 3.8
2018-Jul-12 22:00N 40°38' W 074°08'0 0.0
2018-Jul-12 21:30N 40°38' W 074°08'0 0.0
2018-Jul-12 21:00N 40°38' W 074°08'3 5.7
2018-Jul-12 20:30N 40°39' W 074°04'2 3.2
2018-Jul-12 19:58N 40°40' W 074°02'0 0.1
2018-Jul-12 19:28N 40°40' W 074°02'0 0.0
2018-Jul-12 18:58N 40°40' W 074°02'0 0.0
2018-Jul-12 18:28N 40°40' W 074°02'0 0.0
2018-Jul-12 17:58N 40°40' W 074°02'0 0.0
2018-Jul-12 17:28N 40°40' W 074°02'0 0.0
2018-Jul-12 16:58N 40°40' W 074°02'0 0.0
2018-Jul-12 16:29N 40°40' W 074°02'0 0.0
2018-Jul-12 15:58N 40°40' W 074°02'0 0.0
2018-Jul-12 15:28N 40°40' W 074°02'0 0.0
2018-Jul-12 14:55N 40°40' W 074°02'0 0.0
2018-Jul-12 14:28N 40°40' W 074°02'0 0.2
2018-Jul-12 13:58N 40°40' W 074°02'0 0.1
2018-Jul-12 13:28N 40°40' W 074°02'0 0.0
2018-Jul-12 12:58N 40°40' W 074°02'0 0.0
2018-Jul-12 12:28N 40°40' W 074°02'0 0.0
2018-Jul-12 11:58N 40°40' W 074°02'0 0.0
2018-Jul-12 11:28N 40°40' W 074°02'0 0.0
2018-Jul-12 10:58N 40°40' W 074°02'0 0.1
2018-Jul-12 10:28N 40°40' W 074°02'0 0.1
2018-Jul-12 09:58N 40°40' W 074°02'0 0.1
2018-Jul-12 09:28N 40°40' W 074°02'0 0.1
2018-Jul-12 08:58N 40°40' W 074°02'0 0.2
2018-Jul-12 08:28N 40°40' W 074°02'0 0.1
2018-Jul-12 07:58N 40°40' W 074°02'0 0.1
2018-Jul-12 07:28N 40°40' W 074°02'0 0.0
2018-Jul-12 06:58N 40°40' W 074°02'0 0.0
2018-Jul-12 06:28N 40°40' W 074°02'0 0.0
2018-Jul-12 05:58N 40°40' W 074°02'0 0.0
2018-Jul-12 05:28N 40°40' W 074°02'0 0.0
2018-Jul-12 04:58N 40°40' W 074°02'0 0.0
2018-Jul-12 04:28N 40°40' W 074°02'0 0.0
2018-Jul-12 03:58N 40°40' W 074°02'0 0.0
2018-Jul-12 03:28N 40°40' W 074°02'0 0.0
2018-Jul-12 02:58N 40°40' W 074°02'0 0.0
2018-Jul-12 02:28N 40°40' W 074°02'0 0.1
2018-Jul-12 01:58N 40°40' W 074°02'0 0.1
2018-Jul-12 01:28N 40°40' W 074°02'0 0.1
2018-Jul-12 00:58N 40°40' W 074°02'0 0.0
2018-Jul-12 00:28N 40°40' W 074°02'0 0.0
2018-Jul-11 23:58N 40°40' W 074°02'0 0.0
2018-Jul-11 23:28N 40°40' W 074°02'0 0.0
2018-Jul-11 22:58N 40°40' W 074°02'0 0.0
2018-Jul-11 22:28N 40°40' W 074°02'0 0.0
2018-Jul-11 21:58N 40°40' W 074°02'0 0.0
2018-Jul-11 21:28N 40°40' W 074°02'0 0.0
2018-Jul-11 20:58N 40°40' W 074°02'0 0.3
2018-Jul-11 20:28N 40°40' W 074°02'0 0.0
2018-Jul-11 19:58N 40°40' W 074°02'0 0.0
2018-Jul-11 19:28N 40°40' W 074°02'0 0.1
2018-Jul-11 18:58N 40°40' W 074°02'0 0.0
2018-Jul-11 18:28N 40°40' W 074°02'0 0.0
2018-Jul-11 17:58N 40°40' W 074°02'0 0.0
2018-Jul-11 17:25N 40°40' W 074°02'0 0.0
2018-Jul-11 16:58N 40°40' W 074°02'0 0.0
2018-Jul-11 16:28N 40°40' W 074°02'0 0.0
2018-Jul-11 15:58N 40°40' W 074°02'0 0.0
2018-Jul-11 15:28N 40°40' W 074°02'0 0.0
2018-Jul-11 14:58N 40°40' W 074°02'0 0.0
2018-Jul-11 14:28N 40°40' W 074°02'2 3.3
2018-Jul-11 14:00N 40°39' W 074°04'3 6.0
2018-Jul-11 13:29N 40°38' W 074°08'0 0.0
2018-Jul-11 12:59N 40°38' W 074°08'0 0.0
2018-Jul-11 12:29N 40°38' W 074°08'0 0.0
2018-Jul-11 12:00N 40°38' W 074°08'0 0.1
2018-Jul-11 11:30N 40°38' W 074°08'1 2.0
2018-Jul-11 11:00N 40°39' W 074°06'2 4.4
2018-Jul-11 10:31N 40°39' W 074°04'1 2.0
2018-Jul-11 10:00N 40°39' W 074°02'1 1.1
2018-Jul-11 09:26N 40°40' W 074°02'0 0.0
2018-Jul-11 08:59N 40°40' W 074°02'0 0.1
2018-Jul-11 08:29N 40°40' W 074°02'0 0.2
2018-Jul-11 07:59N 40°40' W 074°02'0 0.1
2018-Jul-11 07:29N 40°40' W 074°02'0 0.0
2018-Jul-11 06:59N 40°40' W 074°02'0 0.0
2018-Jul-11 06:29N 40°40' W 074°02'0 0.7
2018-Jul-11 06:00N 40°40' W 074°02'4 7.1
2018-Jul-11 05:30N 40°39' W 074°07'1 1.2
2018-Jul-11 05:00N 40°38' W 074°08'0 0.2
2018-Jul-11 04:30N 40°39' W 074°08'4 7.7
2018-Jul-11 04:00N 40°39' W 074°03'0 0.0
2018-Jul-11 03:30N 40°39' W 074°02'0 0.0
2018-Jul-11 03:00N 40°39' W 074°03'0 0.0
2018-Jul-11 02:30N 40°39' W 074°03'0 0.0
2018-Jul-11 02:00N 40°39' W 074°02'0 0.3
2018-Jul-11 01:30N 40°39' W 074°03'1 2.2
2018-Jul-11 01:00N 40°40' W 074°02'5 9.3
2018-Jul-11 00:30N 40°44' W 073°58'5 8.1
2018-Jul-10 23:50N 40°48' W 073°53'50 9.0
2018-Jul-10 18:17N 41°05' W 072°51'2 9.0
2018-Jul-10 18:00N 41°05' W 072°48'5 8.6
2018-Jul-10 17:28N 41°07' W 072°42'4 8.1
2018-Jul-10 17:00N 41°07' W 072°37'4 7.6
2018-Jul-10 16:29N 41°08' W 072°32'4 7.4
2018-Jul-10 16:00N 41°09' W 072°28'4 7.4
2018-Jul-10 15:30N 41°10' W 072°23'4 7.3
2018-Jul-10 15:00N 41°11' W 072°18'4 7.9
2018-Jul-10 14:30N 41°13' W 072°13'4 8.0
2018-Jul-10 14:00N 41°14' W 072°08'5 9.4
2018-Jul-10 13:25N 41°14' W 072°01'1710.2
2018-Jul-10 11:46N 41°17' W 071°39'310.0
2018-Jul-10 11:26N 41°18' W 071°34'4 9.9
2018-Jul-10 11:00N 41°18' W 071°29'63 7.8
2018-Jul-10 02:55N 42°03' W 070°30'4 9.1
2018-Jul-10 02:30N 42°07' W 070°31'5 9.3
2018-Jul-10 02:00N 42°11' W 070°34'5 9.7
2018-Jul-10 01:30N 42°15' W 070°38'5 9.5
2018-Jul-10 01:00N 42°19' W 070°42'5 9.6
2018-Jul-10 00:30N 42°21' W 070°48'4 8.8
2018-Jul-10 00:00N 42°23' W 070°53'4 8.5
2018-Jul-09 23:30N 42°20' W 070°58'4 7.7
2018-Jul-09 23:00N 42°22' W 071°03'2 3.3
2018-Jul-09 22:30N 42°23' W 071°01'0 0.4
2018-Jul-09 22:00N 42°23' W 071°01'0 0.4
2018-Jul-09 21:29N 42°23' W 071°02'0 0.0
2018-Jul-09 20:59N 42°23' W 071°02'0 0.0
2018-Jul-09 20:29N 42°23' W 071°02'0 0.0
2018-Jul-09 19:59N 42°23' W 071°02'0 0.0
2018-Jul-09 19:29N 42°23' W 071°02'0 0.0
2018-Jul-09 18:59N 42°23' W 071°02'0 0.0
2018-Jul-09 18:26N 42°23' W 071°02'0 0.0
2018-Jul-09 17:59N 42°23' W 071°02'0 0.0
2018-Jul-09 17:29N 42°23' W 071°02'0 0.0
2018-Jul-09 16:59N 42°23' W 071°02'0 0.0
2018-Jul-09 16:29N 42°23' W 071°02'0 0.0
2018-Jul-09 15:59N 42°23' W 071°02'0 0.0
2018-Jul-09 15:29N 42°23' W 071°02'0 0.0
2018-Jul-09 14:59N 42°23' W 071°02'0 0.0
2018-Jul-09 14:29N 42°23' W 071°02'0 0.0
2018-Jul-09 13:59N 42°23' W 071°02'0 0.0
2018-Jul-09 13:29N 42°23' W 071°02'0 0.0
2018-Jul-09 12:59N 42°23' W 071°02'0 0.0
2018-Jul-09 12:29N 42°23' W 071°02'0 0.0
2018-Jul-09 11:44N 42°23' W 071°02'0 0.0
2018-Jul-09 11:26N 42°23' W 071°02'0 0.0
2018-Jul-09 10:53N 42°23' W 071°02'0 0.0
2018-Jul-09 10:29N 42°23' W 071°02'0 0.0
2018-Jul-09 09:47N 42°23' W 071°02'0 0.0
2018-Jul-09 09:29N 42°23' W 071°02'0 0.0
2018-Jul-09 08:59N 42°23' W 071°02'0 0.0
2018-Jul-09 08:29N 42°23' W 071°02'0 0.0
2018-Jul-09 07:59N 42°23' W 071°02'0 0.0
2018-Jul-09 07:29N 42°23' W 071°02'0 0.0
2018-Jul-09 06:59N 42°23' W 071°02'0 0.0
2018-Jul-09 06:29N 42°23' W 071°02'0 0.0
2018-Jul-09 05:59N 42°23' W 071°02'0 0.0
2018-Jul-09 05:29N 42°23' W 071°02'0 0.0
2018-Jul-09 04:53N 42°23' W 071°02'0 0.0
2018-Jul-09 04:26N 42°23' W 071°02'0 0.0
2018-Jul-09 03:56N 42°23' W 071°02'0 0.0
2018-Jul-09 03:29N 42°23' W 071°02'0 0.0
2018-Jul-09 02:59N 42°23' W 071°02'0 0.0
2018-Jul-09 02:23N 42°23' W 071°02'0 0.0
2018-Jul-09 01:50N 42°23' W 071°02'0 0.0
2018-Jul-09 01:29N 42°23' W 071°02'0 0.0
2018-Jul-09 00:59N 42°23' W 071°02'0 0.0
2018-Jul-09 00:29N 42°23' W 071°02'0 0.0
2018-Jul-08 23:59N 42°23' W 071°02'0 0.0
2018-Jul-08 23:29N 42°23' W 071°02'0 0.1
2018-Jul-08 23:00N 42°23' W 071°02'1 2.0
2018-Jul-08 22:30N 42°23' W 071°03'2 3.3
2018-Jul-08 22:01N 42°21' W 071°02'2 4.6
2018-Jul-08 21:30N 42°20' W 070°59'1 1.1
2018-Jul-08 21:01N 42°20' W 070°59'0 0.0
2018-Jul-08 20:29N 42°20' W 070°59'0 0.1
2018-Jul-08 19:59N 42°20' W 070°59'0 0.1
2018-Jul-08 19:26N 42°20' W 070°59'0 0.0
2018-Jul-08 18:59N 42°20' W 070°59'0 0.0
2018-Jul-08 18:30N 42°20' W 070°59'0 0.0
2018-Jul-08 18:00N 42°20' W 070°59'0 0.1
2018-Jul-08 17:30N 42°20' W 070°59'0 0.2
2018-Jul-08 17:00N 42°20' W 070°59'0 0.2
2018-Jul-08 16:30N 42°20' W 070°58'0 0.1
2018-Jul-08 16:00N 42°20' W 070°58'0 0.0
2018-Jul-08 15:30N 42°20' W 070°58'0 0.1
2018-Jul-08 15:00N 42°20' W 070°58'0 0.0
2018-Jul-08 14:30N 42°20' W 070°58'0 0.0
2018-Jul-08 14:00N 42°20' W 070°58'1 1.6
2018-Jul-08 13:30N 42°20' W 070°57'4 7.9
2018-Jul-08 13:00N 42°23' W 070°53'4 8.5
2018-Jul-08 12:30N 42°22' W 070°48'5 9.1
2018-Jul-08 12:00N 42°19' W 070°43'4 8.9
2018-Jul-08 11:30N 42°16' W 070°38'4 8.7
2018-Jul-08 11:00N 42°13' W 070°34'4 8.9
2018-Jul-08 10:30N 42°09' W 070°31'4 8.9
2018-Jul-08 10:00N 42°05' W 070°30'4 8.9
2018-Jul-08 09:30N 42°00' W 070°29'5 8.8
2018-Jul-08 09:00N 41°56' W 070°28'4 8.8
2018-Jul-08 08:30N 41°51' W 070°28'175 8.5
2018-Jul-07 11:52N 40°29' W 073°53'4 9.5
2018-Jul-07 11:29N 40°30' W 073°58'5 9.5
2018-Jul-07 11:00N 40°34' W 074°02'510.3
2018-Jul-07 10:30N 40°38' W 074°04'4 8.6
2018-Jul-07 10:00N 40°39' W 074°10'2 4.6
2018-Jul-07 09:29N 40°38' W 074°12'0 0.0
2018-Jul-07 08:26N 40°38' W 074°12'0 0.0
2018-Jul-07 07:56N 40°38' W 074°12'0 0.0
2018-Jul-07 07:20N 40°38' W 074°12'0 0.0
2018-Jul-07 06:56N 40°38' W 074°12'0 0.0
2018-Jul-07 06:20N 40°38' W 074°12'0 0.0
2018-Jul-07 05:50N 40°38' W 074°12'0 0.0
2018-Jul-07 05:26N 40°38' W 074°12'0 0.0
2018-Jul-07 04:56N 40°38' W 074°12'0 0.0
2018-Jul-07 04:26N 40°38' W 074°12'0 0.0
2018-Jul-07 03:56N 40°38' W 074°12'0 0.0
2018-Jul-07 03:26N 40°38' W 074°12'0 0.0
2018-Jul-07 02:14N 40°38' W 074°12'0 0.0
2018-Jul-07 01:50N 40°38' W 074°12'0 0.0
2018-Jul-07 01:02N 40°38' W 074°12'0 0.0
2018-Jul-07 00:56N 40°38' W 074°12'0 0.0
2018-Jul-07 00:26N 40°38' W 074°12'0 0.0
2018-Jul-06 23:50N 40°38' W 074°12'0 0.0
2018-Jul-06 23:26N 40°38' W 074°12'0 0.0
2018-Jul-06 22:56N 40°38' W 074°12'0 0.0
2018-Jul-06 22:20N 40°38' W 074°12'0 0.0
2018-Jul-06 21:38N 40°38' W 074°12'0 0.0
2018-Jul-06 21:26N 40°38' W 074°12'0 0.0
2018-Jul-06 20:56N 40°38' W 074°12'0 0.0
2018-Jul-06 20:26N 40°38' W 074°12'  

Dump ship's entire track history